Terminal Aerodrome Forecast
Issued by NWS Quad Cities IA IL

Home | Current Version | Previous Version | Text Only | Print | Product List | Glossary On
Versions: 1 2 3 4 5 6 7 8 9 10 11 12 13 14 15 16 17 18 19 20 21 22 23 24
745
FTUS43 KDVN 241743
TAFDBQ
TAF
KDBQ 241743Z 2418/2518 08004KT P6SM OVC009
     FM250000 10012KT 5SM BR VCSH OVC010
      TEMPO 2501/2504 3SM -RASN BR OVC008
     FM250400 10013G22KT 3SM -RAPL BR OVC008
     FM250800 11012G21KT 2SM -SHRA BR OVC005
     FM251400 07010KT 2SM -RASN BR OVC006=

USA.gov is the U.S. government's official web portal to all federal, state and local government web resources and services.